createdAt,value
2023-06-07T00:00:48.208Z,101102.66
2023-06-07T00:03:15.962Z,101108.91
2023-06-07T00:05:44.617Z,101101.59
2023-06-07T00:08:11.334Z,101105.03
2023-06-07T00:10:38.516Z,101104.19
2023-06-07T00:13:05.478Z,101108.75
2023-06-07T00:15:32.436Z,101103.97
2023-06-07T00:18:02.086Z,101099.56
2023-06-07T00:20:31.712Z,101105.44
2023-06-07T00:22:59.176Z,101097.13
2023-06-07T00:25:26.205Z,101095.84
2023-06-07T00:27:54.102Z,101099.59
2023-06-07T00:30:20.809Z,101098.63
2023-06-07T00:32:48.255Z,101100.38
2023-06-07T00:35:15.248Z,101101.19
2023-06-07T00:37:42.451Z,101098.63
2023-06-07T00:40:09.456Z,101101.19
2023-06-07T00:42:36.354Z,101096.19
2023-06-07T00:45:03.083Z,101094.38
2023-06-07T00:47:30.730Z,101100.13
2023-06-07T00:49:57.803Z,101099.50
2023-06-07T00:52:25.104Z,101104.19
2023-06-07T00:54:52.261Z,101103.63
2023-06-07T00:57:18.978Z,101104.28
2023-06-07T00:59:46.609Z,101104.75
2023-06-07T01:02:16.816Z,101098.06
2023-06-07T01:04:44.662Z,101095.34
2023-06-07T01:07:12.395Z,101095.88
2023-06-07T01:09:41.180Z,101093.06
2023-06-07T01:12:14.567Z,101096.06
2023-06-07T01:14:44.381Z,101100.03
2023-06-07T01:17:13.925Z,101095.91
2023-06-07T01:19:43.610Z,101092.84
2023-06-07T01:22:11.731Z,101092.47
2023-06-07T01:24:44.219Z,101087.75
2023-06-07T01:27:11.401Z,101089.50
2023-06-07T01:29:40.680Z,101094.69
2023-06-07T01:32:13.267Z,101091.16
2023-06-07T01:34:41.142Z,101091.94
2023-06-07T01:37:08.917Z,101093.00
2023-06-07T01:39:37.265Z,101086.03
2023-06-07T01:42:05.070Z,101094.31
2023-06-07T01:44:32.888Z,101084.03
2023-06-07T01:46:59.599Z,101076.34
2023-06-07T01:49:26.242Z,101084.94
2023-06-07T01:51:52.872Z,101082.91
2023-06-07T01:54:20.255Z,101075.34
2023-06-07T01:56:57.130Z,101075.03
2023-06-07T01:59:51.867Z,101080.06
2023-06-07T02:02:22.963Z,101067.75
2023-06-07T02:04:58.755Z,101074.69
2023-06-07T02:07:29.549Z,101071.16
2023-06-07T02:10:02.930Z,101074.50
2023-06-07T02:12:31.450Z,101076.88
2023-06-07T02:17:49.848Z,101074.97
2023-06-07T02:20:18.299Z,101076.50
2023-06-07T02:22:45.631Z,101083.72
2023-06-07T02:25:12.268Z,101080.09
2023-06-07T02:27:39.130Z,101080.56
2023-06-07T02:30:06.791Z,101087.91
2023-06-07T02:32:34.552Z,101086.38
2023-06-07T02:35:02.180Z,101087.53
2023-06-07T02:37:29.546Z,101092.53
2023-06-07T02:39:56.230Z,101088.19
2023-06-07T02:42:23.266Z,101081.75
2023-06-07T02:44:50.169Z,101082.25
2023-06-07T02:47:16.789Z,101081.47
2023-06-07T02:49:44.014Z,101088.03
2023-06-07T02:52:11.788Z,101082.63
2023-06-07T02:54:41.000Z,101088.34
2023-06-07T02:57:09.024Z,101085.00
2023-06-07T02:59:35.745Z,101081.97
2023-06-07T03:02:02.605Z,101084.84
2023-06-07T03:04:32.046Z,101074.06
2023-06-07T03:07:01.598Z,101080.75
2023-06-07T03:09:33.539Z,101080.78
2023-06-07T03:12:00.344Z,101072.84
2023-06-07T03:14:32.259Z,101079.94
2023-06-07T03:16:59.031Z,101082.97
2023-06-07T03:19:26.438Z,101073.03
2023-06-07T03:21:56.021Z,101087.03
2023-06-07T03:24:24.510Z,101083.91
2023-06-07T03:26:51.489Z,101093.31
2023-06-07T03:29:19.002Z,101089.03
2023-06-07T03:31:45.714Z,101092.38
2023-06-07T03:34:16.383Z,101091.75
2023-06-07T03:36:43.933Z,101096.09
2023-06-07T03:39:14.351Z,101086.47
2023-06-07T03:41:41.629Z,101091.69
2023-06-07T03:44:09.978Z,101092.72
2023-06-07T03:46:39.158Z,101092.13
2023-06-07T03:49:05.841Z,101087.13
2023-06-07T03:51:34.055Z,101092.03
2023-06-07T03:54:03.255Z,101082.28
2023-06-07T03:56:30.747Z,101089.03
2023-06-07T03:58:58.263Z,101089.59
2023-06-07T04:01:26.969Z,101094.38
2023-06-07T04:03:55.985Z,101093.63
2023-06-07T04:06:25.195Z,101091.69
2023-06-07T04:08:53.146Z,101086.31
2023-06-07T04:11:20.491Z,101086.66
2023-06-07T04:13:47.738Z,101082.94
2023-06-07T04:16:14.523Z,101080.94
2023-06-07T04:18:44.481Z,101084.41
2023-06-07T04:21:13.791Z,101087.06
2023-06-07T04:23:42.967Z,101096.44
2023-06-07T04:26:10.949Z,101099.56
2023-06-07T04:28:41.760Z,101093.84
2023-06-07T04:31:09.958Z,101095.00
2023-06-07T04:33:38.571Z,101095.16
2023-06-07T04:36:06.082Z,101097.81
2023-06-07T04:38:33.609Z,101099.13
2023-06-07T04:41:08.810Z,101094.22
2023-06-07T04:43:42.133Z,101093.06
2023-06-07T04:46:14.170Z,101100.53
2023-06-07T04:48:42.407Z,101099.31
2023-06-07T04:51:09.730Z,101104.63
2023-06-07T04:53:44.043Z,101106.72
2023-06-07T04:56:13.956Z,101109.97
2023-06-07T04:58:41.657Z,101104.88
2023-06-07T05:01:12.416Z,101105.16
2023-06-07T05:03:43.671Z,101101.06
2023-06-07T05:06:12.946Z,101107.66
2023-06-07T05:08:40.142Z,101106.94
2023-06-07T05:11:07.394Z,101115.75
2023-06-07T05:13:34.140Z,101118.84
2023-06-07T05:16:02.387Z,101109.56
2023-06-07T05:18:29.806Z,101123.13
2023-06-07T05:20:58.620Z,101120.47
2023-06-07T05:23:26.882Z,101127.09
2023-06-07T05:25:54.484Z,101136.41
2023-06-07T05:28:22.056Z,101137.22
2023-06-07T05:30:52.910Z,101136.16
2023-06-07T05:33:22.408Z,101143.06
2023-06-07T05:35:49.365Z,101141.06
2023-06-07T05:38:17.997Z,101143.16
2023-06-07T05:40:44.634Z,101132.56
2023-06-07T05:43:11.613Z,101128.56
2023-06-07T05:45:41.342Z,101123.84
2023-06-07T05:48:08.834Z,101115.94
2023-06-07T05:50:35.640Z,101114.66
2023-06-07T05:53:02.261Z,101118.75
2023-06-07T05:55:29.629Z,101122.34
2023-06-07T05:57:58.358Z,101118.63
2023-06-07T06:00:25.839Z,101116.09
2023-06-07T06:02:54.076Z,101117.38
2023-06-07T06:05:29.137Z,101130.00
2023-06-07T06:07:58.000Z,101117.00
2023-06-07T06:10:25.852Z,101113.38
2023-06-07T06:12:52.678Z,101124.56
2023-06-07T06:15:19.367Z,101128.56
2023-06-07T06:17:46.133Z,101139.81
2023-06-07T06:20:13.425Z,101136.44
2023-06-07T06:22:40.265Z,101143.13
2023-06-07T06:25:07.363Z,101142.22
2023-06-07T06:27:34.260Z,101141.16
2023-06-07T06:30:01.062Z,101137.25
2023-06-07T06:32:27.754Z,101135.75
2023-06-07T06:34:54.423Z,101137.47
2023-06-07T06:37:21.587Z,101138.88
2023-06-07T06:39:49.574Z,101145.44
2023-06-07T06:42:16.446Z,101147.84
2023-06-07T06:45:11.600Z,101157.25
2023-06-07T06:47:42.586Z,101159.06
2023-06-07T06:50:30.323Z,101171.00
2023-06-07T06:53:01.992Z,101179.06
2023-06-07T06:55:28.830Z,101168.50
2023-06-07T06:57:56.257Z,101175.28
2023-06-07T07:00:24.485Z,101170.44
2023-06-07T07:02:51.342Z,101169.03
2023-06-07T07:05:17.978Z,101172.16
2023-06-07T07:07:44.672Z,101172.63
2023-06-07T07:10:13.204Z,101176.38
2023-06-07T07:12:40.766Z,101167.63
2023-06-07T07:15:07.668Z,101167.16
2023-06-07T07:17:34.566Z,101168.59
2023-06-07T07:20:01.242Z,101166.41
2023-06-07T07:22:28.784Z,101175.72
2023-06-07T07:24:56.427Z,101177.28
2023-06-07T07:27:24.038Z,101192.38
2023-06-07T07:29:50.653Z,101191.56
2023-06-07T07:32:17.317Z,101199.78
2023-06-07T07:34:44.045Z,101198.69
2023-06-07T07:37:11.231Z,101202.03
2023-06-07T07:39:38.956Z,101198.25
2023-06-07T07:42:06.815Z,101197.81
2023-06-07T07:44:34.638Z,101189.63
2023-06-07T07:47:01.772Z,101180.31
2023-06-07T07:49:28.474Z,101184.47
2023-06-07T07:51:58.197Z,101176.78
2023-06-07T07:54:25.544Z,101171.25
2023-06-07T07:56:52.354Z,101164.34
2023-06-07T07:59:19.037Z,101165.91
2023-06-07T08:01:46.623Z,101164.41
2023-06-07T08:04:13.752Z,101164.63
2023-06-07T08:06:40.834Z,101157.00
2023-06-07T08:09:07.443Z,101163.41
2023-06-07T08:11:34.295Z,101164.91
2023-06-07T08:14:00.899Z,101161.97
2023-06-07T08:16:27.679Z,101163.38
2023-06-07T08:19:00.576Z,101160.22
2023-06-07T08:21:27.502Z,101167.38
2023-06-07T08:23:56.154Z,101166.66
2023-06-07T08:26:23.502Z,101168.56
2023-06-07T08:28:50.139Z,101159.09
2023-06-07T08:31:18.959Z,101169.91
2023-06-07T08:33:47.353Z,101175.09
2023-06-07T08:36:16.085Z,101173.97
2023-06-07T08:38:42.759Z,101176.88
2023-06-07T08:41:10.166Z,101173.88
2023-06-07T08:43:38.840Z,101165.44
2023-06-07T08:46:06.582Z,101160.44
2023-06-07T08:48:37.133Z,101172.72
2023-06-07T08:51:08.174Z,101168.00
2023-06-07T08:53:48.017Z,101159.91
2023-06-07T08:56:18.189Z,101166.25
2023-06-07T08:58:45.401Z,101159.03
2023-06-07T09:01:12.902Z,101161.66
2023-06-07T09:03:41.190Z,101157.63
2023-06-07T09:06:09.642Z,101165.78
2023-06-07T09:08:37.141Z,101166.38
2023-06-07T09:11:03.777Z,101161.19
2023-06-07T09:13:31.283Z,101159.91
2023-06-07T09:16:00.449Z,101164.75
2023-06-07T09:18:43.902Z,101159.31
2023-06-07T09:21:21.501Z,101157.81
2023-06-07T09:23:49.454Z,101164.59
2023-06-07T09:26:17.328Z,101156.16
2023-06-07T09:28:46.953Z,101163.72
2023-06-07T09:31:14.597Z,101155.25
2023-06-07T09:33:41.343Z,101167.66
2023-06-07T09:36:16.321Z,101160.00
2023-06-07T09:38:43.397Z,101166.31
2023-06-07T09:41:14.135Z,101165.03
2023-06-07T09:43:45.130Z,101163.56
2023-06-07T09:46:12.779Z,101169.75
2023-06-07T09:48:50.892Z,101167.84
2023-06-07T09:51:19.701Z,101179.22
2023-06-07T09:53:50.810Z,101167.44
2023-06-07T09:56:18.000Z,101181.09
2023-06-07T09:58:47.362Z,101174.72
2023-06-07T10:01:14.520Z,101175.91
2023-06-07T10:03:48.031Z,101178.38
2023-06-07T10:06:17.475Z,101183.59
2023-06-07T10:08:45.697Z,101182.75
2023-06-07T10:11:14.861Z,101180.94
2023-06-07T10:13:43.138Z,101178.84
2023-06-07T10:16:11.642Z,101190.78
2023-06-07T10:18:41.083Z,101176.25
2023-06-07T10:21:15.252Z,101171.66
2023-06-07T10:23:51.597Z,101179.03
2023-06-07T10:26:30.088Z,101189.47
2023-06-07T10:29:10.822Z,101178.34
2023-06-07T10:32:07.940Z,101174.59
2023-06-07T10:34:37.509Z,101176.94
2023-06-07T10:37:08.369Z,101169.13
2023-06-07T10:39:37.274Z,101173.16
2023-06-07T10:42:04.189Z,101170.94
2023-06-07T10:44:31.693Z,101169.75
2023-06-07T10:47:23.144Z,101178.78
2023-06-07T10:49:50.677Z,101169.06
2023-06-07T10:52:18.004Z,101167.78
2023-06-07T10:54:45.478Z,101166.25
2023-06-07T10:57:12.596Z,101168.88
2023-06-07T10:59:40.674Z,101166.53
2023-06-07T11:02:24.916Z,101161.66
2023-06-07T11:05:04.485Z,101159.81
2023-06-07T11:07:33.076Z,101161.03
2023-06-07T11:10:06.813Z,101153.25
2023-06-07T11:12:37.131Z,101151.22
2023-06-07T11:15:23.210Z,101143.66
2023-06-07T11:17:57.852Z,101147.34
2023-06-07T11:20:37.498Z,101158.78
2023-06-07T11:23:31.739Z,101157.44
2023-06-07T11:26:08.111Z,101153.06
2023-06-07T11:28:39.400Z,101151.81
2023-06-07T11:31:13.878Z,101145.09
2023-06-07T11:33:44.848Z,101155.22
2023-06-07T11:36:12.290Z,101163.13
2023-06-07T11:38:40.147Z,101161.63
2023-06-07T11:41:07.016Z,101158.75
2023-06-07T11:43:34.583Z,101156.00
2023-06-07T11:46:01.747Z,101152.50
2023-06-07T11:48:30.159Z,101148.03
2023-06-07T11:50:57.744Z,101147.38
2023-06-07T11:53:24.818Z,101145.53
2023-06-07T11:55:53.880Z,101138.69
2023-06-07T11:58:20.568Z,101136.19
2023-06-07T12:00:48.804Z,101145.47
2023-06-07T12:03:17.576Z,101139.16
2023-06-07T12:05:46.055Z,101136.06
2023-06-07T12:08:15.715Z,101135.59
2023-06-07T12:10:42.772Z,101133.16
2023-06-07T12:13:14.719Z,101134.06
2023-06-07T12:16:00.260Z,101117.44
2023-06-07T12:18:33.766Z,101129.53
2023-06-07T12:21:04.938Z,101121.81
2023-06-07T12:23:32.847Z,101117.38
2023-06-07T12:26:16.204Z,101124.75
2023-06-07T12:28:44.618Z,101106.53
2023-06-07T12:31:21.139Z,101106.44
2023-06-07T12:33:58.832Z,101112.97
2023-06-07T12:36:31.604Z,101112.66
2023-06-07T12:39:06.774Z,101111.56
2023-06-07T12:41:34.420Z,101111.63
2023-06-07T12:44:04.568Z,101106.16
2023-06-07T12:46:32.165Z,101104.56
2023-06-07T12:48:58.929Z,101102.78
2023-06-07T12:51:26.852Z,101101.47
2023-06-07T12:53:54.740Z,101104.59
2023-06-07T12:56:25.104Z,101100.03
2023-06-07T12:58:51.962Z,101097.44
2023-06-07T13:01:18.863Z,101092.50
2023-06-07T13:03:46.416Z,101087.41
2023-06-07T13:06:13.184Z,101086.69
2023-06-07T13:08:39.853Z,101083.00
2023-06-07T13:11:07.229Z,101089.19
2023-06-07T13:13:34.269Z,101086.53
2023-06-07T13:16:01.891Z,101080.72
2023-06-07T13:18:30.455Z,101071.00
2023-06-07T13:20:57.281Z,101080.66
2023-06-07T13:23:24.709Z,101071.47
2023-06-07T13:25:52.010Z,101068.53
2023-06-07T13:28:20.810Z,101076.63
2023-06-07T13:30:48.438Z,101069.66
2023-06-07T13:33:19.418Z,101059.94
2023-06-07T13:35:46.159Z,101063.94
2023-06-07T13:38:13.283Z,101067.44
2023-06-07T13:40:40.311Z,101062.09
2023-06-07T13:43:07.838Z,101062.00
2023-06-07T13:45:34.895Z,101059.50
2023-06-07T13:48:02.650Z,101054.91
2023-06-07T13:50:30.950Z,101056.94
2023-06-07T13:52:57.743Z,101046.75
2023-06-07T13:55:25.042Z,101059.75
2023-06-07T13:57:52.194Z,101058.81
2023-06-07T14:00:19.538Z,101047.91
2023-06-07T14:02:46.670Z,101041.28
2023-06-07T14:05:14.656Z,101039.06
2023-06-07T14:07:42.031Z,101026.72
2023-06-07T14:10:09.533Z,101035.50
2023-06-07T14:12:36.131Z,101037.31
2023-06-07T14:15:03.166Z,101033.59
2023-06-07T14:17:30.543Z,101025.59
2023-06-07T14:19:57.452Z,101026.72
2023-06-07T14:22:24.090Z,101024.84
2023-06-07T14:24:51.022Z,101022.09
2023-06-07T14:27:17.625Z,101015.84
2023-06-07T14:29:44.264Z,101021.00
2023-06-07T14:32:11.350Z,101016.69
2023-06-07T14:34:37.959Z,101015.28
2023-06-07T14:37:04.619Z,101013.09
2023-06-07T14:39:31.719Z,101015.06
2023-06-07T14:41:58.391Z,101012.06
2023-06-07T14:44:25.345Z,101005.13
2023-06-07T14:46:52.237Z,101004.56
2023-06-07T14:49:18.857Z,101008.06
2023-06-07T14:51:48.868Z,101001.44
2023-06-07T14:54:16.035Z,100999.66
2023-06-07T14:56:42.838Z,100997.28
2023-06-07T14:59:14.017Z,101007.28
2023-06-07T15:01:41.413Z,100999.22
2023-06-07T15:04:08.936Z,101004.97
2023-06-07T15:06:36.831Z,100994.50
2023-06-07T15:09:04.631Z,100988.34
2023-06-07T15:11:31.397Z,100988.47
2023-06-07T15:13:58.094Z,100987.09
2023-06-07T15:16:24.890Z,100983.13
2023-06-07T15:18:51.747Z,100991.16
2023-06-07T15:21:20.171Z,100981.97
2023-06-07T15:23:49.788Z,100987.72
2023-06-07T15:26:17.479Z,100980.69
2023-06-07T15:28:44.691Z,100980.66
2023-06-07T15:31:11.375Z,100981.13
2023-06-07T15:33:38.108Z,100982.75
2023-06-07T15:36:05.288Z,100975.94
2023-06-07T15:38:38.229Z,100971.00
2023-06-07T15:41:09.249Z,100972.13
2023-06-07T15:43:37.031Z,100969.00
2023-06-07T15:46:04.501Z,100972.38
2023-06-07T15:48:31.642Z,100976.78
2023-06-07T15:50:58.650Z,100963.97
2023-06-07T15:53:25.401Z,100967.31
2023-06-07T15:55:52.181Z,100969.97
2023-06-07T15:58:19.163Z,100967.03
2023-06-07T16:00:49.496Z,100966.75
2023-06-07T16:03:17.035Z,100967.25
2023-06-07T16:05:43.834Z,100966.28
2023-06-07T16:08:14.094Z,100965.50
2023-06-07T16:10:43.397Z,100964.69
2023-06-07T16:13:10.222Z,100949.16
2023-06-07T16:15:37.457Z,100959.94
2023-06-07T16:18:05.740Z,100954.44
2023-06-07T16:20:32.762Z,100950.06
2023-06-07T16:22:59.510Z,100945.78
2023-06-07T16:25:26.144Z,100937.94
2023-06-07T16:27:52.733Z,100946.22
2023-06-07T16:30:19.664Z,100951.56
2023-06-07T16:32:46.513Z,100947.53
2023-06-07T16:35:13.176Z,100951.94
2023-06-07T16:37:39.776Z,100939.00
2023-06-07T16:40:07.251Z,100949.44
2023-06-07T16:42:34.107Z,100938.88
2023-06-07T16:45:00.769Z,100944.16
2023-06-07T16:47:28.466Z,100944.78
2023-06-07T16:49:55.420Z,100943.94
2023-06-07T16:52:22.417Z,100938.13
2023-06-07T16:54:49.033Z,100943.94
2023-06-07T16:57:15.677Z,100935.06
2023-06-07T16:59:42.455Z,100939.25
2023-06-07T17:02:09.233Z,100942.00
2023-06-07T17:04:36.597Z,100938.13
2023-06-07T17:07:04.190Z,100939.50
2023-06-07T17:09:31.257Z,100947.78
2023-06-07T17:11:58.059Z,100938.41
2023-06-07T17:14:24.759Z,100937.31
2023-06-07T17:16:52.207Z,100938.41
2023-06-07T17:19:19.751Z,100929.28
2023-06-07T17:21:46.503Z,100928.47
2023-06-07T17:24:13.335Z,100942.56
2023-06-07T17:26:40.111Z,100938.97
2023-06-07T17:29:27.593Z,100940.34
2023-06-07T17:31:54.168Z,100940.06
2023-06-07T17:34:20.975Z,100940.59
2023-06-07T17:36:47.787Z,100936.53
2023-06-07T17:39:16.095Z,100930.56
2023-06-07T17:41:42.904Z,100926.75
2023-06-07T17:44:09.808Z,100916.97
2023-06-07T17:46:37.052Z,100920.00
2023-06-07T17:49:04.041Z,100916.06
2023-06-07T17:51:31.217Z,100916.13
2023-06-07T17:53:57.965Z,100922.94
2023-06-07T17:56:26.628Z,100927.41
2023-06-07T17:58:53.805Z,100913.72
2023-06-07T18:01:20.624Z,100910.22
2023-06-07T18:03:47.392Z,100916.13
2023-06-07T18:06:14.140Z,100916.53
2023-06-07T18:08:40.773Z,100910.88
2023-06-07T18:11:08.264Z,100914.59
2023-06-07T18:13:35.979Z,100914.25
2023-06-07T18:16:02.838Z,100916.84
2023-06-07T18:18:30.822Z,100923.97
2023-06-07T18:20:57.592Z,100915.91
2023-06-07T18:23:24.366Z,100926.06
2023-06-07T18:25:51.351Z,100919.28
2023-06-07T18:28:18.468Z,100918.13
2023-06-07T18:30:45.157Z,100917.25
2023-06-07T18:33:11.973Z,100929.53
2023-06-07T18:35:38.684Z,100927.56
2023-06-07T18:38:05.314Z,100932.28
2023-06-07T18:40:33.464Z,100932.31
2023-06-07T18:43:00.137Z,100929.59
2023-06-07T18:45:27.180Z,100929.75
2023-06-07T18:47:54.023Z,100939.91
2023-06-07T18:50:21.204Z,100941.72
2023-06-07T18:52:47.907Z,100940.16
2023-06-07T18:55:14.774Z,100933.84
2023-06-07T18:57:41.596Z,100935.06
2023-06-07T19:00:08.857Z,100939.09
2023-06-07T19:02:37.144Z,100939.09
2023-06-07T19:05:04.344Z,100943.34
2023-06-07T19:07:31.568Z,100936.72
2023-06-07T19:09:58.318Z,100950.88
2023-06-07T19:12:28.100Z,100951.19
2023-06-07T19:14:56.386Z,100949.81
2023-06-07T19:17:23.144Z,100948.66
2023-06-07T19:19:49.930Z,100943.25
2023-06-07T19:22:16.569Z,100951.44
2023-06-07T19:24:46.746Z,100945.84
2023-06-07T19:27:13.629Z,100942.25
2023-06-07T19:29:41.898Z,100946.53
2023-06-07T19:32:10.043Z,100951.91
2023-06-07T19:34:37.340Z,100941.47
2023-06-07T19:37:04.534Z,100953.56
2023-06-07T19:39:34.367Z,100954.25
2023-06-07T19:42:04.443Z,100954.97
2023-06-07T19:44:31.260Z,100958.28
2023-06-07T19:47:03.276Z,100959.31
2023-06-07T19:49:30.791Z,100952.72
2023-06-07T19:51:57.558Z,100955.47
2023-06-07T19:54:24.218Z,100958.19
2023-06-07T19:56:51.029Z,100957.75
2023-06-07T19:59:18.064Z,100962.03
2023-06-07T20:01:44.972Z,100975.31
2023-06-07T20:04:14.379Z,100974.94
2023-06-07T20:06:41.251Z,100974.88
2023-06-07T20:09:08.433Z,100968.47
2023-06-07T20:11:35.321Z,100970.84
2023-06-07T20:14:02.127Z,100971.19
2023-06-07T20:16:29.650Z,100980.94
2023-06-07T20:18:56.446Z,100971.59
2023-06-07T20:21:23.439Z,100977.75
2023-06-07T20:23:50.287Z,100987.53
2023-06-07T20:26:18.206Z,100979.00
2023-06-07T20:28:45.203Z,100985.03
2023-06-07T20:31:12.347Z,100985.47
2023-06-07T20:33:40.128Z,100985.88
2023-06-07T20:36:07.629Z,100987.56
2023-06-07T20:38:34.333Z,100986.09
2023-06-07T20:41:02.048Z,100990.09
2023-06-07T20:43:29.561Z,100990.28
2023-06-07T20:45:56.554Z,100992.16
2023-06-07T20:48:23.650Z,100993.44
2023-06-07T20:50:50.371Z,100991.59
2023-06-07T20:53:17.365Z,100992.16
2023-06-07T20:55:44.282Z,100997.59
2023-06-07T20:58:11.390Z,101000.31
2023-06-07T21:00:41.038Z,101005.25
2023-06-07T21:03:08.534Z,101006.81
2023-06-07T21:05:35.500Z,101013.53
2023-06-07T21:08:02.960Z,101005.97
2023-06-07T21:10:29.685Z,101010.31
2023-06-07T21:12:56.314Z,101005.72
2023-06-07T21:15:23.589Z,101007.59
2023-06-07T21:17:50.350Z,101002.56
2023-06-07T21:20:18.478Z,100999.91
2023-06-07T21:22:45.151Z,101008.78
2023-06-07T21:25:11.985Z,101011.78
2023-06-07T21:27:38.766Z,101007.19
2023-06-07T21:30:06.404Z,101013.09
2023-06-07T21:32:33.286Z,101013.50
2023-06-07T21:35:00.436Z,101017.31
2023-06-07T21:37:27.148Z,101017.94
2023-06-07T21:39:53.827Z,101019.00
2023-06-07T21:42:20.678Z,101018.91
2023-06-07T21:44:47.921Z,101027.53
2023-06-07T21:47:14.615Z,101023.25
2023-06-07T21:49:41.266Z,101017.72
2023-06-07T21:52:08.800Z,101012.97
2023-06-07T21:54:44.426Z,101013.41
2023-06-07T21:57:11.412Z,101021.84
2023-06-07T21:59:38.124Z,101012.63
2023-06-07T22:02:06.396Z,101019.84
2023-06-07T22:04:33.243Z,101021.59
2023-06-07T22:07:00.217Z,101019.22
2023-06-07T22:09:26.968Z,101015.56
2023-06-07T22:11:55.476Z,101009.78
2023-06-07T22:14:22.945Z,101010.53
2023-06-07T22:16:50.394Z,101008.94
2023-06-07T22:19:20.119Z,101012.63
2023-06-07T22:21:49.743Z,101010.16
2023-06-07T22:24:19.187Z,101011.84
2023-06-07T22:26:46.993Z,101009.84
2023-06-07T22:29:14.172Z,101003.78
2023-06-07T22:31:41.107Z,101010.09
2023-06-07T22:34:08.962Z,101003.66
2023-06-07T22:36:41.426Z,101008.75
2023-06-07T22:39:10.158Z,101002.72
2023-06-07T22:41:37.846Z,101001.53
2023-06-07T22:44:05.188Z,101002.63
2023-06-07T22:46:34.931Z,101008.38
2023-06-07T22:49:01.938Z,101012.03
2023-06-07T22:51:31.660Z,101008.28
2023-06-07T22:53:58.651Z,101001.22
2023-06-07T22:56:26.046Z,101003.94
2023-06-07T22:58:52.727Z,100997.00
2023-06-07T23:01:19.894Z,101001.75
2023-06-07T23:03:47.998Z,100997.03
2023-06-07T23:06:15.310Z,101000.22
2023-06-07T23:08:41.996Z,100999.09
2023-06-07T23:11:08.985Z,100998.88
2023-06-07T23:13:36.169Z,100996.69
2023-06-07T23:16:03.627Z,101000.69
2023-06-07T23:18:31.119Z,101000.00
2023-06-07T23:20:58.336Z,100994.03
2023-06-07T23:23:25.076Z,100999.78
2023-06-07T23:25:51.843Z,100999.94
2023-06-07T23:28:18.499Z,101000.06
2023-06-07T23:30:45.136Z,101007.38
2023-06-07T23:33:12.977Z,101002.25
2023-06-07T23:35:42.033Z,101000.94
2023-06-07T23:38:08.882Z,100999.78
2023-06-07T23:40:35.660Z,101006.41
2023-06-07T23:43:05.182Z,101001.03
2023-06-07T23:45:32.317Z,101003.28
2023-06-07T23:48:00.104Z,100995.28
2023-06-07T23:50:26.983Z,100995.31
2023-06-07T23:52:54.128Z,100993.66
2023-06-07T23:55:21.294Z,100995.34
2023-06-07T23:57:48.447Z,100995.78
